createdAt,value
2024-04-16T00:06:10.362Z,12.7667
2024-04-16T00:16:30.308Z,12.7218
2024-04-16T00:26:50.999Z,12.6704
2024-04-16T00:36:59.008Z,12.6327
2024-04-16T00:47:07.421Z,12.5764
2024-04-16T00:57:28.826Z,12.5289
2024-04-16T01:07:49.774Z,12.4784
2024-04-16T01:18:11.095Z,12.4347
2024-04-16T01:28:18.677Z,12.3841
2024-04-16T01:38:28.050Z,12.3334
2024-04-16T01:48:36.206Z,12.2780
2024-04-16T01:58:45.437Z,12.2311
2024-04-16T02:08:53.474Z,12.1736
2024-04-16T02:19:14.952Z,12.1113
2024-04-16T02:29:37.723Z,12.0500
2024-04-16T02:39:45.334Z,11.9966
2024-04-16T02:50:06.525Z,11.9284
2024-04-16T03:00:16.392Z,11.8702
2024-04-16T03:10:24.712Z,11.8086
2024-04-16T03:20:45.885Z,11.7496
2024-04-16T03:30:54.992Z,11.6811
2024-04-16T03:41:16.577Z,11.6256
2024-04-16T03:51:38.415Z,11.5611
2024-04-16T04:01:46.395Z,11.5086
2024-04-16T04:12:07.759Z,11.4487
2024-04-16T04:22:16.148Z,11.3877
2024-04-16T04:32:39.344Z,11.3371
2024-04-16T04:42:47.629Z,11.2845
2024-04-16T04:52:55.196Z,11.2391
2024-04-16T05:03:05.361Z,11.1880
2024-04-16T05:13:13.597Z,11.1434
2024-04-16T05:23:22.315Z,11.0923
2024-04-16T05:33:34.778Z,11.0459
2024-04-16T05:43:43.271Z,10.9964
2024-04-16T05:53:51.988Z,10.9532
2024-04-16T06:04:00.214Z,10.9145
2024-04-16T06:14:08.322Z,10.8773
2024-04-16T06:24:17.054Z,10.8523
2024-04-16T06:34:25.625Z,10.8264
2024-04-16T06:44:34.675Z,10.8109
2024-04-16T06:54:43.473Z,10.7952
2024-04-16T07:05:04.782Z,10.7964
2024-04-16T07:15:12.756Z,10.7934
2024-04-16T07:25:34.386Z,10.7998
2024-04-16T07:35:57.811Z,10.8033
2024-04-16T07:46:06.118Z,10.8111
2024-04-16T07:56:26.766Z,10.8260
2024-04-16T08:06:35.310Z,10.8311
2024-04-16T08:16:56.431Z,10.8460
2024-04-16T08:27:16.641Z,10.8669
2024-04-16T08:37:37.064Z,10.8927
2024-04-16T08:47:57.267Z,10.9338
2024-04-16T08:58:05.731Z,10.9839
2024-04-16T09:08:26.099Z,11.0387
2024-04-16T09:18:47.731Z,11.0891
2024-04-16T09:28:55.487Z,11.1425
2024-04-16T09:39:17.421Z,11.1944
2024-04-16T09:49:45.212Z,11.2553
2024-04-16T09:59:49.839Z,11.3052
2024-04-16T10:10:09.780Z,11.3504
2024-04-16T10:20:30.382Z,11.4058
2024-04-16T10:30:51.652Z,11.4616
2024-04-16T10:41:12.351Z,11.5100
2024-04-16T10:51:31.002Z,11.5478
2024-04-16T11:01:51.312Z,11.5824
2024-04-16T11:12:09.559Z,11.6224
2024-04-16T11:22:28.571Z,11.6720
2024-04-16T11:32:47.238Z,11.7191
2024-04-16T11:43:06.394Z,11.7769
2024-04-16T11:53:16.730Z,11.8461
2024-04-16T12:03:35.583Z,11.9364
2024-04-16T12:13:54.437Z,12.0013
2024-04-16T12:24:13.515Z,12.0509
2024-04-16T12:34:32.504Z,12.0942
2024-04-16T12:44:50.852Z,12.1367
2024-04-16T12:55:10.095Z,12.1898
2024-04-16T13:05:28.716Z,12.2478
2024-04-16T13:15:47.204Z,12.3076
2024-04-16T13:26:05.566Z,12.3720
2024-04-16T13:36:23.818Z,12.4296
2024-04-16T13:46:43.313Z,12.4882
2024-04-16T13:57:01.879Z,12.5420
2024-04-16T14:07:20.021Z,12.5869
2024-04-16T14:17:39.256Z,12.6158
2024-04-16T14:27:58.030Z,12.6384
2024-04-16T14:38:16.594Z,12.6576
2024-04-16T14:48:35.833Z,12.6736
2024-04-16T14:58:44.173Z,12.6880
2024-04-16T15:08:52.867Z,12.6934
2024-04-16T15:19:13.086Z,12.6856
2024-04-16T15:29:31.562Z,12.6698
2024-04-16T15:39:42.729Z,12.6627
2024-04-16T15:50:01.181Z,12.6593
2024-04-16T16:00:19.657Z,12.6562
2024-04-16T16:10:40.102Z,12.6564
2024-04-16T16:21:01.420Z,12.6496
2024-04-16T16:31:23.110Z,12.6187
2024-04-16T16:41:43.763Z,12.5873
2024-04-16T16:52:04.402Z,12.5429
2024-04-16T17:02:13.082Z,12.4961
2024-04-16T17:12:22.992Z,12.4473
2024-04-16T17:22:30.730Z,12.3920
2024-04-16T17:32:39.399Z,12.3373
2024-04-16T17:42:49.008Z,12.2875
2024-04-16T17:52:57.982Z,12.2398
2024-04-16T18:03:12.088Z,12.1845
2024-04-16T18:13:20.597Z,12.1316
2024-04-16T18:23:29.063Z,12.0814
2024-04-16T18:33:40.554Z,12.0280
2024-04-16T18:43:49.430Z,11.9725
2024-04-16T18:54:11.966Z,11.9009
2024-04-16T19:04:21.170Z,11.8336
2024-04-16T19:14:33.570Z,11.7575
2024-04-16T19:24:47.463Z,11.6736
2024-04-16T19:34:56.893Z,11.5691
2024-04-16T19:45:06.082Z,11.4770
2024-04-16T19:55:16.132Z,11.3891
2024-04-16T20:05:25.859Z,11.3080
2024-04-16T20:15:35.672Z,11.2350
2024-04-16T20:25:45.221Z,11.1655
2024-04-16T20:35:56.042Z,11.1095
2024-04-16T20:46:05.402Z,11.0539
2024-04-16T20:56:14.748Z,11.0089
2024-04-16T21:06:24.144Z,10.9645
2024-04-16T21:16:33.435Z,10.9261
2024-04-16T21:26:42.446Z,10.8891
2024-04-16T21:36:51.807Z,10.8523
2024-04-16T21:47:01.405Z,10.8227
2024-04-16T21:57:11.046Z,10.7902
2024-04-16T22:07:20.430Z,10.7636
2024-04-16T22:17:29.882Z,10.7348
2024-04-16T22:27:40.632Z,10.7016
2024-04-16T22:37:50.359Z,10.6720
2024-04-16T22:48:00.003Z,10.6468
2024-04-16T22:58:09.835Z,10.6155
2024-04-16T23:08:19.041Z,10.5914
2024-04-16T23:18:28.434Z,10.5593
2024-04-16T23:28:37.695Z,10.5311
2024-04-16T23:38:46.776Z,10.5077
2024-04-16T23:48:56.453Z,10.4757
2024-04-16T23:59:05.522Z,10.4498
